createdAt,value
2023-03-21T00:04:33.193Z,10.60
2023-03-21T00:09:40.453Z,10.60
2023-03-21T00:14:43.440Z,10.60
2023-03-21T00:19:46.357Z,10.60
2023-03-21T00:24:48.457Z,10.60
2023-03-21T00:29:50.734Z,10.60
2023-03-21T00:35:03.885Z,10.60
2023-03-21T00:40:26.563Z,10.60
2023-03-21T00:45:33.239Z,10.60
2023-03-21T00:50:39.499Z,10.60
2023-03-21T00:55:41.990Z,10.60
2023-03-21T01:00:46.997Z,10.60
2023-03-21T01:06:05.812Z,10.60
2023-03-21T01:11:11.911Z,10.60
2023-03-21T01:16:14.118Z,10.70
2023-03-21T01:21:17.235Z,10.70
2023-03-21T01:26:19.755Z,10.70
2023-03-21T01:31:21.942Z,10.70
2023-03-21T01:36:26.707Z,10.70
2023-03-21T01:41:45.447Z,10.70
2023-03-21T01:47:12.193Z,10.70
2023-03-21T01:52:36.583Z,10.70
2023-03-21T01:58:09.524Z,10.80
2023-03-21T02:03:38.270Z,10.80
2023-03-21T02:09:08.771Z,10.80
2023-03-21T02:14:26.546Z,10.90
2023-03-21T02:19:58.789Z,10.90
2023-03-21T02:25:23.435Z,10.90
2023-03-21T02:30:39.973Z,11.00
2023-03-21T02:36:14.883Z,11.00
2023-03-21T02:41:53.267Z,11.10
2023-03-21T02:47:47.689Z,11.10
2023-03-21T02:52:52.307Z,11.10
2023-03-21T02:57:56.824Z,11.10
2023-03-21T03:03:09.656Z,11.10
2023-03-21T03:08:50.062Z,11.10
2023-03-21T03:14:35.673Z,11.10
2023-03-21T03:20:07.158Z,11.10
2023-03-21T03:25:32.640Z,11.10
2023-03-21T03:30:57.389Z,11.10
2023-03-21T03:36:30.369Z,11.10
2023-03-21T03:42:05.950Z,11.10
2023-03-21T03:47:29.843Z,11.00
2023-03-21T03:52:55.262Z,11.00
2023-03-21T03:57:59.374Z,11.00
2023-03-21T04:03:02.030Z,11.00
2023-03-21T04:08:04.387Z,11.00
2023-03-21T04:13:13.788Z,11.00
2023-03-21T04:18:36.017Z,11.00
2023-03-21T04:23:38.460Z,11.00
2023-03-21T04:28:40.852Z,11.00
2023-03-21T04:34:09.977Z,11.00
2023-03-21T04:39:15.014Z,11.00
2023-03-21T04:44:21.065Z,11.00
2023-03-21T04:49:23.484Z,11.00
2023-03-21T04:54:25.996Z,11.00
2023-03-21T04:59:28.376Z,11.00
2023-03-21T05:04:31.118Z,11.00
2023-03-21T05:09:33.344Z,11.00
2023-03-21T05:14:35.669Z,11.00
2023-03-21T05:19:40.601Z,11.00
2023-03-21T05:24:42.956Z,11.00
2023-03-21T05:29:54.378Z,11.00
2023-03-21T05:34:56.743Z,11.00
2023-03-21T05:39:59.052Z,11.00
2023-03-21T05:45:06.678Z,10.90
2023-03-21T05:50:11.674Z,10.90
2023-03-21T05:55:16.173Z,10.90
2023-03-21T06:00:21.917Z,10.90
2023-03-21T06:05:44.606Z,10.90
2023-03-21T06:10:55.616Z,10.80
2023-03-21T06:15:58.430Z,10.70
2023-03-21T06:21:01.583Z,10.60
2023-03-21T06:26:04.422Z,10.60
2023-03-21T06:31:07.288Z,10.60
2023-03-21T06:36:10.804Z,10.50
2023-03-21T06:41:13.570Z,10.60
2023-03-21T06:46:20.568Z,10.60
2023-03-21T06:51:23.242Z,10.50
2023-03-21T06:56:42.356Z,10.60
2023-03-21T07:01:47.496Z,10.60
2023-03-21T07:06:50.009Z,10.60
2023-03-21T07:11:55.528Z,10.60
2023-03-21T07:17:02.067Z,10.70
2023-03-21T07:22:05.126Z,10.60
2023-03-21T07:27:07.152Z,10.60
2023-03-21T07:32:09.390Z,10.70
2023-03-21T07:37:11.509Z,10.80
2023-03-21T07:42:13.652Z,10.90
2023-03-21T07:47:15.980Z,10.90
2023-03-21T07:52:18.017Z,10.80
2023-03-21T07:57:20.070Z,10.80
2023-03-21T08:02:22.173Z,10.80
2023-03-21T08:07:24.217Z,10.80
2023-03-21T08:12:26.253Z,11.00
2023-03-21T08:17:28.944Z,11.20
2023-03-21T08:22:31.006Z,11.40
2023-03-21T08:27:33.164Z,11.40
2023-03-21T08:32:35.226Z,11.40
2023-03-21T08:37:38.891Z,11.40
2023-03-21T08:42:41.683Z,11.30
2023-03-21T08:47:43.891Z,11.40
2023-03-21T08:52:46.077Z,11.40
2023-03-21T08:57:48.091Z,11.20
2023-03-21T09:02:52.055Z,11.20
2023-03-21T09:07:54.311Z,11.30
2023-03-21T09:12:56.457Z,11.50
2023-03-21T09:18:13.007Z,11.80
2023-03-21T09:23:15.669Z,11.80
2023-03-21T09:28:17.749Z,12.00
2023-03-21T09:33:21.244Z,12.20
2023-03-21T09:38:30.371Z,12.40
2023-03-21T09:43:53.268Z,12.50
2023-03-21T09:49:13.103Z,12.50
2023-03-21T09:54:33.161Z,12.40
2023-03-21T09:59:40.092Z,12.30
2023-03-21T10:04:44.204Z,12.30
2023-03-21T10:09:48.413Z,12.50
2023-03-21T10:14:57.122Z,12.50
2023-03-21T10:20:17.670Z,12.60
2023-03-21T10:25:37.786Z,12.90
2023-03-21T10:30:46.607Z,13.00
2023-03-21T10:35:57.135Z,12.90
2023-03-21T10:40:59.292Z,13.20
2023-03-21T10:46:08.397Z,13.30
2023-03-21T10:51:10.596Z,13.50
2023-03-21T10:56:13.049Z,13.40
2023-03-21T11:01:32.341Z,13.10
2023-03-21T11:06:38.767Z,13.40
2023-03-21T11:12:01.092Z,14.00
2023-03-21T11:17:28.638Z,14.20
2023-03-21T11:22:39.247Z,13.80
2023-03-21T11:27:53.832Z,13.90
2023-03-21T11:33:03.516Z,13.50
2023-03-21T11:38:23.410Z,13.20
2023-03-21T11:43:37.190Z,13.20
2023-03-21T11:48:39.367Z,13.20
2023-03-21T11:54:07.528Z,13.50
2023-03-21T11:59:37.423Z,13.90
2023-03-21T12:05:00.985Z,14.20
2023-03-21T12:10:11.862Z,15.20
2023-03-21T12:15:35.184Z,15.10
2023-03-21T12:20:42.325Z,15.40
2023-03-21T12:25:59.764Z,14.90
2023-03-21T12:31:39.896Z,14.60
2023-03-21T12:36:52.357Z,14.60
2023-03-21T12:42:35.977Z,15.30
2023-03-21T12:47:43.351Z,14.70
2023-03-21T12:52:50.284Z,14.20
2023-03-21T12:58:06.638Z,14.20
2023-03-21T13:03:30.236Z,14.30
2023-03-21T13:08:52.761Z,14.40
2023-03-21T13:14:16.759Z,15.00
2023-03-21T13:19:33.012Z,15.90
2023-03-21T13:24:40.845Z,15.50
2023-03-21T13:29:49.862Z,15.90
2023-03-21T13:35:16.045Z,15.70
2023-03-21T13:40:25.397Z,16.10
2023-03-21T13:45:31.930Z,16.00
2023-03-21T13:51:00.766Z,15.80
2023-03-21T13:56:15.272Z,15.80
2023-03-21T14:01:36.745Z,15.50
2023-03-21T14:06:55.298Z,15.50
2023-03-21T14:12:03.910Z,15.50
2023-03-21T14:17:26.616Z,15.70
2023-03-21T14:22:29.839Z,16.30
2023-03-21T14:27:34.430Z,16.30
2023-03-21T14:32:36.661Z,16.00
2023-03-21T14:37:42.357Z,15.90
2023-03-21T14:42:49.337Z,15.70
2023-03-21T14:47:57.145Z,15.10
2023-03-21T14:52:59.622Z,15.00
2023-03-21T14:58:01.721Z,15.10
2023-03-21T15:03:04.190Z,15.10
2023-03-21T15:08:12.044Z,15.30
2023-03-21T15:13:16.343Z,14.90
2023-03-21T15:18:34.478Z,14.50
2023-03-21T15:23:53.195Z,15.10
2023-03-21T15:29:00.368Z,15.10
2023-03-21T15:34:03.801Z,15.10
2023-03-21T15:39:08.748Z,15.60
2023-03-21T15:44:14.890Z,15.10
2023-03-21T15:49:19.368Z,14.70
2023-03-21T15:54:29.589Z,14.50
2023-03-21T15:59:36.628Z,14.00
2023-03-21T16:04:56.570Z,13.80
2023-03-21T16:10:04.668Z,13.80
2023-03-21T16:15:07.620Z,13.80
2023-03-21T16:20:20.580Z,13.60
2023-03-21T16:25:22.758Z,13.70
2023-03-21T16:30:25.627Z,13.80
2023-03-21T16:35:28.004Z,13.90
2023-03-21T16:40:37.374Z,14.00
2023-03-21T16:45:39.690Z,13.90
2023-03-21T16:50:46.341Z,13.70
2023-03-21T16:55:48.778Z,13.70
2023-03-21T17:00:50.837Z,13.60
2023-03-21T17:05:52.952Z,13.70
2023-03-21T17:10:55.052Z,13.50
2023-03-21T17:15:57.095Z,13.50
2023-03-21T17:20:59.205Z,13.40
2023-03-21T17:26:02.321Z,13.30
2023-03-21T17:31:06.736Z,13.20
2023-03-21T17:36:20.377Z,13.10
2023-03-21T17:41:22.844Z,12.90
2023-03-21T17:46:27.348Z,12.80
2023-03-21T17:51:30.485Z,12.90
2023-03-21T17:56:34.511Z,12.90
2023-03-21T18:01:37.059Z,12.80
2023-03-21T18:06:39.496Z,12.70
2023-03-21T18:11:43.024Z,12.60
2023-03-21T18:16:51.343Z,12.50
2023-03-21T18:21:56.210Z,12.50
2023-03-21T18:26:58.774Z,12.50
2023-03-21T18:32:06.993Z,12.50
2023-03-21T18:37:13.153Z,12.50
2023-03-21T18:42:18.829Z,12.50
2023-03-21T18:47:23.676Z,12.30
2023-03-21T18:52:27.142Z,12.20
2023-03-21T18:57:37.013Z,12.10
2023-03-21T19:02:46.770Z,12.00
2023-03-21T19:07:50.488Z,12.00
2023-03-21T19:12:54.828Z,11.90
2023-03-21T19:23:21.111Z,11.90
2023-03-21T19:28:23.276Z,11.90
2023-03-21T19:33:25.568Z,11.90
2023-03-21T19:38:27.655Z,11.90
2023-03-21T19:43:33.112Z,11.90
2023-03-21T19:48:38.404Z,11.90
2023-03-21T19:53:40.922Z,12.00
2023-03-21T19:58:43.433Z,11.90
2023-03-21T20:03:45.966Z,11.90
2023-03-21T20:14:10.552Z,11.80
2023-03-21T20:19:17.313Z,11.70
2023-03-21T20:24:20.295Z,11.70
2023-03-21T20:34:44.780Z,11.60
2023-03-21T20:39:46.866Z,11.60
2023-03-21T20:44:58.268Z,11.60
2023-03-21T20:50:01.059Z,11.60
2023-03-21T20:55:03.359Z,11.60
2023-03-21T21:00:14.796Z,11.60
2023-03-21T21:05:29.950Z,11.60
2023-03-21T21:10:35.051Z,11.70
2023-03-21T21:15:39.965Z,11.70
2023-03-21T21:20:42.184Z,11.80
2023-03-21T21:25:44.284Z,11.80
2023-03-21T21:30:46.306Z,11.80
2023-03-21T21:35:49.178Z,11.80
2023-03-21T21:40:52.361Z,11.80
2023-03-21T21:45:54.577Z,11.80
2023-03-21T21:50:56.633Z,11.80
2023-03-21T21:56:02.022Z,11.80
2023-03-21T22:01:06.375Z,11.80
2023-03-21T22:06:10.351Z,11.90
2023-03-21T22:11:13.901Z,11.90
2023-03-21T22:16:16.069Z,11.90
2023-03-21T22:21:18.154Z,11.90
2023-03-21T22:26:20.465Z,11.90
2023-03-21T22:31:23.396Z,11.90
2023-03-21T22:36:25.687Z,11.90
2023-03-21T22:41:27.761Z,11.90
2023-03-21T22:46:29.996Z,11.90
2023-03-21T22:51:32.393Z,11.90
2023-03-21T22:56:34.603Z,11.90
2023-03-21T23:01:36.849Z,11.90
2023-03-21T23:06:39.562Z,12.00
2023-03-21T23:11:43.010Z,12.00
2023-03-21T23:16:45.212Z,12.00
2023-03-21T23:21:47.848Z,11.90
2023-03-21T23:26:49.993Z,11.90
2023-03-21T23:31:52.125Z,11.80
2023-03-21T23:36:54.324Z,11.80
2023-03-21T23:41:58.596Z,11.80
2023-03-21T23:47:01.106Z,11.80
2023-03-21T23:52:03.904Z,11.80
2023-03-21T23:57:06.118Z,11.80
